sensor_id;sensor_type;location;lat;lon;timestamp;P1;durP1;ratioP1;P2;durP2;ratioP2
84891;SDS011;75154;42.072;21.394;2024-03-08T00:01:59;10.90;;;4.72;;
84891;SDS011;75154;42.072;21.394;2024-03-08T00:04:26;7.07;;;4.75;;
84891;SDS011;75154;42.072;21.394;2024-03-08T00:06:52;8.27;;;5.00;;
84891;SDS011;75154;42.072;21.394;2024-03-08T00:09:18;10.57;;;5.20;;
84891;SDS011;75154;42.072;21.394;2024-03-08T00:11:44;9.75;;;4.85;;
84891;SDS011;75154;42.072;21.394;2024-03-08T00:14:10;9.48;;;5.72;;
84891;SDS011;75154;42.072;21.394;2024-03-08T00:16:36;6.63;;;5.38;;
84891;SDS011;75154;42.072;21.394;2024-03-08T00:19:03;9.10;;;5.00;;
84891;SDS011;75154;42.072;21.394;2024-03-08T00:21:29;9.88;;;5.72;;
84891;SDS011;75154;42.072;21.394;2024-03-08T00:23:56;10.77;;;6.78;;
84891;SDS011;75154;42.072;21.394;2024-03-08T00:26:23;9.80;;;7.53;;
84891;SDS011;75154;42.072;21.394;2024-03-08T00:28:49;9.52;;;6.55;;
84891;SDS011;75154;42.072;21.394;2024-03-08T00:31:15;12.93;;;6.18;;
84891;SDS011;75154;42.072;21.394;2024-03-08T00:33:42;13.05;;;6.20;;
84891;SDS011;75154;42.072;21.394;2024-03-08T00:36:08;10.77;;;7.05;;
84891;SDS011;75154;42.072;21.394;2024-03-08T00:38:34;10.25;;;6.15;;
84891;SDS011;75154;42.072;21.394;2024-03-08T00:41:00;10.68;;;5.40;;
84891;SDS011;75154;42.072;21.394;2024-03-08T00:43:27;8.23;;;6.03;;
84891;SDS011;75154;42.072;21.394;2024-03-08T00:45:55;9.70;;;6.43;;
84891;SDS011;75154;42.072;21.394;2024-03-08T00:48:22;11.27;;;6.18;;
84891;SDS011;75154;42.072;21.394;2024-03-08T00:50:49;13.15;;;6.13;;
84891;SDS011;75154;42.072;21.394;2024-03-08T00:53:15;11.00;;;6.38;;
84891;SDS011;75154;42.072;21.394;2024-03-08T00:55:42;10.20;;;5.30;;
84891;SDS011;75154;42.072;21.394;2024-03-08T00:58:11;9.52;;;6.38;;
84891;SDS011;75154;42.072;21.394;2024-03-08T01:00:37;10.95;;;5.45;;
84891;SDS011;75154;42.072;21.394;2024-03-08T01:03:04;10.55;;;5.28;;
84891;SDS011;75154;42.072;21.394;2024-03-08T01:05:30;7.18;;;5.13;;
84891;SDS011;75154;42.072;21.394;2024-03-08T01:07:56;9.15;;;5.95;;
84891;SDS011;75154;42.072;21.394;2024-03-08T01:10:22;9.20;;;5.25;;
84891;SDS011;75154;42.072;21.394;2024-03-08T01:12:48;10.63;;;5.60;;
84891;SDS011;75154;42.072;21.394;2024-03-08T01:15:15;8.50;;;5.45;;
84891;SDS011;75154;42.072;21.394;2024-03-08T01:17:41;10.27;;;6.00;;
84891;SDS011;75154;42.072;21.394;2024-03-08T01:20:08;10.55;;;5.65;;
84891;SDS011;75154;42.072;21.394;2024-03-08T01:22:37;8.55;;;5.28;;
84891;SDS011;75154;42.072;21.394;2024-03-08T01:25:03;10.93;;;5.43;;
84891;SDS011;75154;42.072;21.394;2024-03-08T01:27:30;9.35;;;5.18;;
84891;SDS011;75154;42.072;21.394;2024-03-08T01:29:56;10.82;;;4.65;;
84891;SDS011;75154;42.072;21.394;2024-03-08T01:32:24;11.73;;;5.03;;
84891;SDS011;75154;42.072;21.394;2024-03-08T01:34:50;11.27;;;5.15;;
84891;SDS011;75154;42.072;21.394;2024-03-08T01:37:17;7.47;;;4.00;;
84891;SDS011;75154;42.072;21.394;2024-03-08T01:39:43;6.90;;;4.45;;
84891;SDS011;75154;42.072;21.394;2024-03-08T01:42:09;9.07;;;4.90;;
84891;SDS011;75154;42.072;21.394;2024-03-08T01:44:38;6.05;;;4.47;;
84891;SDS011;75154;42.072;21.394;2024-03-08T01:47:04;8.02;;;4.53;;
84891;SDS011;75154;42.072;21.394;2024-03-08T01:49:31;7.50;;;4.10;;
84891;SDS011;75154;42.072;21.394;2024-03-08T01:51:58;12.88;;;5.53;;
84891;SDS011;75154;42.072;21.394;2024-03-08T01:54:24;12.35;;;5.38;;
84891;SDS011;75154;42.072;21.394;2024-03-08T01:56:50;12.75;;;5.75;;
84891;SDS011;75154;42.072;21.394;2024-03-08T01:59:18;17.75;;;5.80;;
84891;SDS011;75154;42.072;21.394;2024-03-08T02:01:44;12.88;;;5.50;;
84891;SDS011;75154;42.072;21.394;2024-03-08T02:04:10;22.65;;;6.70;;
84891;SDS011;75154;42.072;21.394;2024-03-08T02:06:36;33.50;;;6.82;;
84891;SDS011;75154;42.072;21.394;2024-03-08T02:09:03;18.25;;;6.30;;
84891;SDS011;75154;42.072;21.394;2024-03-08T02:11:35;22.23;;;8.00;;
84891;SDS011;75154;42.072;21.394;2024-03-08T02:14:01;10.23;;;5.45;;
84891;SDS011;75154;42.072;21.394;2024-03-08T02:16:27;22.83;;;5.55;;
84891;SDS011;75154;42.072;21.394;2024-03-08T02:18:54;23.27;;;6.03;;
84891;SDS011;75154;42.072;21.394;2024-03-08T02:21:21;14.30;;;5.25;;
84891;SDS011;75154;42.072;21.394;2024-03-08T02:23:47;20.83;;;8.07;;
84891;SDS011;75154;42.072;21.394;2024-03-08T02:26:13;13.32;;;5.15;;
84891;SDS011;75154;42.072;21.394;2024-03-08T02:28:39;14.55;;;6.07;;
84891;SDS011;75154;42.072;21.394;2024-03-08T02:31:08;10.52;;;5.28;;
84891;SDS011;75154;42.072;21.394;2024-03-08T02:33:34;12.43;;;5.53;;
84891;SDS011;75154;42.072;21.394;2024-03-08T02:36:00;13.45;;;6.00;;
84891;SDS011;75154;42.072;21.394;2024-03-08T02:38:26;9.50;;;5.50;;
84891;SDS011;75154;42.072;21.394;2024-03-08T02:40:53;9.55;;;5.38;;
84891;SDS011;75154;42.072;21.394;2024-03-08T02:43:20;10.15;;;5.45;;
84891;SDS011;75154;42.072;21.394;2024-03-08T02:48:15;16.27;;;7.22;;
84891;SDS011;75154;42.072;21.394;2024-03-08T02:50:41;23.40;;;7.07;;
84891;SDS011;75154;42.072;21.394;2024-03-08T02:53:07;22.35;;;6.82;;
84891;SDS011;75154;42.072;21.394;2024-03-08T02:55:34;9.95;;;6.38;;
84891;SDS011;75154;42.072;21.394;2024-03-08T02:58:01;10.98;;;6.00;;
84891;SDS011;75154;42.072;21.394;2024-03-08T03:00:30;12.00;;;6.20;;
84891;SDS011;75154;42.072;21.394;2024-03-08T03:02:57;17.23;;;6.30;;
84891;SDS011;75154;42.072;21.394;2024-03-08T03:05:23;15.15;;;5.85;;
84891;SDS011;75154;42.072;21.394;2024-03-08T03:07:50;10.95;;;6.03;;
84891;SDS011;75154;42.072;21.394;2024-03-08T03:10:16;18.35;;;7.07;;
84891;SDS011;75154;42.072;21.394;2024-03-08T03:12:43;18.13;;;6.90;;
84891;SDS011;75154;42.072;21.394;2024-03-08T03:15:10;23.00;;;9.15;;
84891;SDS011;75154;42.072;21.394;2024-03-08T03:17:36;21.02;;;7.28;;
84891;SDS011;75154;42.072;21.394;2024-03-08T03:20:06;15.27;;;7.00;;
84891;SDS011;75154;42.072;21.394;2024-03-08T03:22:38;16.08;;;6.43;;
84891;SDS011;75154;42.072;21.394;2024-03-08T03:25:06;14.35;;;6.50;;
84891;SDS011;75154;42.072;21.394;2024-03-08T03:27:32;10.90;;;6.03;;
84891;SDS011;75154;42.072;21.394;2024-03-08T03:29:58;13.27;;;6.07;;
84891;SDS011;75154;42.072;21.394;2024-03-08T03:32:44;11.45;;;5.10;;
84891;SDS011;75154;42.072;21.394;2024-03-08T03:35:12;12.50;;;5.07;;
84891;SDS011;75154;42.072;21.394;2024-03-08T03:37:39;21.10;;;7.07;;
84891;SDS011;75154;42.072;21.394;2024-03-08T03:40:08;17.90;;;6.47;;
84891;SDS011;75154;42.072;21.394;2024-03-08T03:42:34;13.02;;;5.10;;
84891;SDS011;75154;42.072;21.394;2024-03-08T03:45:00;14.40;;;5.90;;
84891;SDS011;75154;42.072;21.394;2024-03-08T03:47:27;11.32;;;5.82;;
84891;SDS011;75154;42.072;21.394;2024-03-08T03:49:53;19.27;;;6.68;;
84891;SDS011;75154;42.072;21.394;2024-03-08T03:52:20;40.90;;;9.68;;
84891;SDS011;75154;42.072;21.394;2024-03-08T03:54:46;34.08;;;9.30;;
84891;SDS011;75154;42.072;21.394;2024-03-08T03:57:12;30.17;;;9.15;;
84891;SDS011;75154;42.072;21.394;2024-03-08T03:59:38;35.80;;;10.48;;
84891;SDS011;75154;42.072;21.394;2024-03-08T04:02:06;24.10;;;8.52;;
84891;SDS011;75154;42.072;21.394;2024-03-08T04:04:32;27.92;;;8.43;;
84891;SDS011;75154;42.072;21.394;2024-03-08T04:06:58;19.52;;;7.72;;
84891;SDS011;75154;42.072;21.394;2024-03-08T04:09:25;24.20;;;7.97;;
84891;SDS011;75154;42.072;21.394;2024-03-08T04:11:51;22.30;;;8.95;;
84891;SDS011;75154;42.072;21.394;2024-03-08T04:14:18;28.25;;;10.20;;
84891;SDS011;75154;42.072;21.394;2024-03-08T04:16:44;14.55;;;9.30;;
84891;SDS011;75154;42.072;21.394;2024-03-08T04:19:10;20.65;;;9.52;;
84891;SDS011;75154;42.072;21.394;2024-03-08T04:21:36;21.05;;;9.60;;
84891;SDS011;75154;42.072;21.394;2024-03-08T04:24:03;20.30;;;9.45;;
84891;SDS011;75154;42.072;21.394;2024-03-08T04:26:29;20.23;;;10.50;;
84891;SDS011;75154;42.072;21.394;2024-03-08T04:28:55;20.13;;;9.73;;
84891;SDS011;75154;42.072;21.394;2024-03-08T04:31:21;23.35;;;9.98;;
84891;SDS011;75154;42.072;21.394;2024-03-08T04:33:47;26.13;;;11.95;;
84891;SDS011;75154;42.072;21.394;2024-03-08T04:36:13;20.85;;;10.15;;
84891;SDS011;75154;42.072;21.394;2024-03-08T04:38:42;22.58;;;11.23;;
84891;SDS011;75154;42.072;21.394;2024-03-08T04:41:08;23.92;;;10.50;;
84891;SDS011;75154;42.072;21.394;2024-03-08T04:43:35;23.15;;;10.25;;
84891;SDS011;75154;42.072;21.394;2024-03-08T04:46:01;23.38;;;11.38;;
84891;SDS011;75154;42.072;21.394;2024-03-08T04:48:28;18.63;;;12.38;;
84891;SDS011;75154;42.072;21.394;2024-03-08T04:50:54;22.92;;;12.98;;
84891;SDS011;75154;42.072;21.394;2024-03-08T04:53:21;26.13;;;12.05;;
84891;SDS011;75154;42.072;21.394;2024-03-08T04:55:47;28.65;;;13.98;;
84891;SDS011;75154;42.072;21.394;2024-03-08T04:58:13;19.95;;;12.32;;
84891;SDS011;75154;42.072;21.394;2024-03-08T05:00:39;29.30;;;12.68;;
84891;SDS011;75154;42.072;21.394;2024-03-08T05:03:05;29.02;;;12.77;;
84891;SDS011;75154;42.072;21.394;2024-03-08T05:05:31;21.50;;;12.35;;
84891;SDS011;75154;42.072;21.394;2024-03-08T05:07:58;30.02;;;14.23;;
84891;SDS011;75154;42.072;21.394;2024-03-08T05:10:26;24.20;;;11.43;;
84891;SDS011;75154;42.072;21.394;2024-03-08T05:12:52;24.77;;;12.63;;
84891;SDS011;75154;42.072;21.394;2024-03-08T05:15:18;24.23;;;13.50;;
84891;SDS011;75154;42.072;21.394;2024-03-08T05:17:45;26.58;;;14.80;;
84891;SDS011;75154;42.072;21.394;2024-03-08T05:20:11;26.63;;;16.00;;
84891;SDS011;75154;42.072;21.394;2024-03-08T05:22:38;30.05;;;16.25;;
84891;SDS011;75154;42.072;21.394;2024-03-08T05:25:08;30.83;;;16.80;;
84891;SDS011;75154;42.072;21.394;2024-03-08T05:27:35;33.70;;;14.85;;
84891;SDS011;75154;42.072;21.394;2024-03-08T05:30:02;28.90;;;13.82;;
84891;SDS011;75154;42.072;21.394;2024-03-08T05:32:32;34.67;;;15.18;;
84891;SDS011;75154;42.072;21.394;2024-03-08T05:34:58;28.85;;;14.90;;
84891;SDS011;75154;42.072;21.394;2024-03-08T05:37:24;32.70;;;17.60;;
84891;SDS011;75154;42.072;21.394;2024-03-08T05:39:50;39.80;;;16.23;;
84891;SDS011;75154;42.072;21.394;2024-03-08T05:42:16;54.53;;;18.77;;
84891;SDS011;75154;42.072;21.394;2024-03-08T05:44:42;47.08;;;18.77;;
84891;SDS011;75154;42.072;21.394;2024-03-08T05:47:08;53.22;;;17.73;;
84891;SDS011;75154;42.072;21.394;2024-03-08T05:49:36;45.33;;;19.25;;
84891;SDS011;75154;42.072;21.394;2024-03-08T05:52:02;52.67;;;19.38;;
84891;SDS011;75154;42.072;21.394;2024-03-08T05:54:28;42.95;;;16.80;;
84891;SDS011;75154;42.072;21.394;2024-03-08T05:56:54;45.75;;;17.35;;
84891;SDS011;75154;42.072;21.394;2024-03-08T05:59:20;45.63;;;16.30;;
84891;SDS011;75154;42.072;21.394;2024-03-08T06:01:48;56.67;;;15.63;;
84891;SDS011;75154;42.072;21.394;2024-03-08T06:04:14;42.40;;;14.82;;
84891;SDS011;75154;42.072;21.394;2024-03-08T06:06:43;35.80;;;13.70;;
84891;SDS011;75154;42.072;21.394;2024-03-08T06:09:09;40.17;;;13.70;;
84891;SDS011;75154;42.072;21.394;2024-03-08T06:11:36;28.92;;;13.98;;
84891;SDS011;75154;42.072;21.394;2024-03-08T06:14:03;23.63;;;14.52;;
84891;SDS011;75154;42.072;21.394;2024-03-08T06:16:29;24.85;;;14.60;;
84891;SDS011;75154;42.072;21.394;2024-03-08T06:18:58;31.95;;;14.55;;
84891;SDS011;75154;42.072;21.394;2024-03-08T06:21:27;33.55;;;15.90;;
84891;SDS011;75154;42.072;21.394;2024-03-08T06:23:53;28.15;;;13.43;;
84891;SDS011;75154;42.072;21.394;2024-03-08T06:26:22;21.35;;;12.68;;
84891;SDS011;75154;42.072;21.394;2024-03-08T06:28:49;21.15;;;12.30;;
84891;SDS011;75154;42.072;21.394;2024-03-08T06:31:16;19.50;;;12.45;;
84891;SDS011;75154;42.072;21.394;2024-03-08T06:33:42;25.52;;;11.95;;
84891;SDS011;75154;42.072;21.394;2024-03-08T06:36:08;21.20;;;12.57;;
84891;SDS011;75154;42.072;21.394;2024-03-08T06:38:36;20.13;;;11.27;;
84891;SDS011;75154;42.072;21.394;2024-03-08T06:41:07;21.50;;;12.15;;
84891;SDS011;75154;42.072;21.394;2024-03-08T06:43:33;21.30;;;12.40;;
84891;SDS011;75154;42.072;21.394;2024-03-08T06:45:59;18.48;;;11.07;;
84891;SDS011;75154;42.072;21.394;2024-03-08T06:48:25;17.85;;;10.55;;
84891;SDS011;75154;42.072;21.394;2024-03-08T06:50:51;17.48;;;10.82;;
84891;SDS011;75154;42.072;21.394;2024-03-08T06:53:17;19.45;;;10.50;;
84891;SDS011;75154;42.072;21.394;2024-03-08T06:55:44;18.02;;;10.95;;
84891;SDS011;75154;42.072;21.394;2024-03-08T06:58:10;19.27;;;11.57;;
84891;SDS011;75154;42.072;21.394;2024-03-08T07:00:36;21.02;;;12.55;;
84891;SDS011;75154;42.072;21.394;2024-03-08T07:03:03;23.05;;;12.18;;
84891;SDS011;75154;42.072;21.394;2024-03-08T07:05:31;22.20;;;11.88;;
84891;SDS011;75154;42.072;21.394;2024-03-08T07:07:57;16.23;;;11.07;;
84891;SDS011;75154;42.072;21.394;2024-03-08T07:10:24;17.60;;;12.23;;
84891;SDS011;75154;42.072;21.394;2024-03-08T07:12:50;20.50;;;11.60;;
84891;SDS011;75154;42.072;21.394;2024-03-08T07:15:18;23.35;;;12.68;;
84891;SDS011;75154;42.072;21.394;2024-03-08T07:17:45;18.42;;;12.15;;
84891;SDS011;75154;42.072;21.394;2024-03-08T07:20:11;21.38;;;11.65;;
84891;SDS011;75154;42.072;21.394;2024-03-08T07:22:38;18.35;;;10.88;;
84891;SDS011;75154;42.072;21.394;2024-03-08T07:25:05;17.67;;;12.68;;
84891;SDS011;75154;42.072;21.394;2024-03-08T07:27:52;18.88;;;12.35;;
84891;SDS011;75154;42.072;21.394;2024-03-08T07:30:19;19.13;;;12.60;;
84891;SDS011;75154;42.072;21.394;2024-03-08T07:33:24;19.15;;;12.45;;
84891;SDS011;75154;42.072;21.394;2024-03-08T07:35:50;19.33;;;11.50;;
84891;SDS011;75154;42.072;21.394;2024-03-08T07:38:16;22.45;;;12.82;;
84891;SDS011;75154;42.072;21.394;2024-03-08T07:40:43;17.90;;;10.70;;
84891;SDS011;75154;42.072;21.394;2024-03-08T07:43:10;21.05;;;13.00;;
84891;SDS011;75154;42.072;21.394;2024-03-08T07:45:37;21.23;;;12.70;;
84891;SDS011;75154;42.072;21.394;2024-03-08T07:48:03;17.77;;;11.20;;
84891;SDS011;75154;42.072;21.394;2024-03-08T07:50:34;17.38;;;11.80;;
84891;SDS011;75154;42.072;21.394;2024-03-08T07:53:00;17.20;;;11.30;;
84891;SDS011;75154;42.072;21.394;2024-03-08T07:55:28;20.98;;;11.75;;
84891;SDS011;75154;42.072;21.394;2024-03-08T07:57:56;18.55;;;11.13;;
84891;SDS011;75154;42.072;21.394;2024-03-08T08:00:22;16.90;;;10.82;;
84891;SDS011;75154;42.072;21.394;2024-03-08T08:02:49;16.50;;;10.65;;
84891;SDS011;75154;42.072;21.394;2024-03-08T08:05:15;18.90;;;10.63;;
84891;SDS011;75154;42.072;21.394;2024-03-08T08:07:46;20.38;;;12.00;;
84891;SDS011;75154;42.072;21.394;2024-03-08T08:10:12;16.88;;;10.90;;
84891;SDS011;75154;42.072;21.394;2024-03-08T08:12:43;23.10;;;12.45;;
84891;SDS011;75154;42.072;21.394;2024-03-08T08:15:09;18.58;;;11.75;;
84891;SDS011;75154;42.072;21.394;2024-03-08T08:17:35;20.38;;;12.10;;
84891;SDS011;75154;42.072;21.394;2024-03-08T08:20:01;18.83;;;11.65;;
84891;SDS011;75154;42.072;21.394;2024-03-08T08:22:30;19.35;;;11.98;;
84891;SDS011;75154;42.072;21.394;2024-03-08T08:24:57;17.48;;;11.68;;
84891;SDS011;75154;42.072;21.394;2024-03-08T08:27:23;18.45;;;12.20;;
84891;SDS011;75154;42.072;21.394;2024-03-08T08:29:51;19.92;;;10.68;;
84891;SDS011;75154;42.072;21.394;2024-03-08T08:32:17;16.35;;;9.90;;
84891;SDS011;75154;42.072;21.394;2024-03-08T08:34:43;17.10;;;11.80;;
84891;SDS011;75154;42.072;21.394;2024-03-08T08:37:09;22.95;;;13.45;;
84891;SDS011;75154;42.072;21.394;2024-03-08T08:39:36;18.88;;;12.20;;
84891;SDS011;75154;42.072;21.394;2024-03-08T08:42:03;19.10;;;12.02;;
84891;SDS011;75154;42.072;21.394;2024-03-08T08:44:29;17.80;;;12.07;;
84891;SDS011;75154;42.072;21.394;2024-03-08T08:46:56;17.65;;;11.88;;
84891;SDS011;75154;42.072;21.394;2024-03-08T08:49:23;20.25;;;12.02;;
84891;SDS011;75154;42.072;21.394;2024-03-08T08:51:51;17.98;;;11.43;;
84891;SDS011;75154;42.072;21.394;2024-03-08T08:54:17;18.70;;;11.75;;
84891;SDS011;75154;42.072;21.394;2024-03-08T08:56:43;17.38;;;10.80;;
84891;SDS011;75154;42.072;21.394;2024-03-08T08:59:10;20.17;;;12.20;;
84891;SDS011;75154;42.072;21.394;2024-03-08T09:01:39;14.63;;;10.75;;
84891;SDS011;75154;42.072;21.394;2024-03-08T09:04:05;14.18;;;10.30;;
84891;SDS011;75154;42.072;21.394;2024-03-08T09:06:32;16.58;;;9.98;;
84891;SDS011;75154;42.072;21.394;2024-03-08T09:08:58;11.32;;;8.27;;
84891;SDS011;75154;42.072;21.394;2024-03-08T09:11:24;13.68;;;10.13;;
84891;SDS011;75154;42.072;21.394;2024-03-08T09:13:51;13.48;;;8.68;;
84891;SDS011;75154;42.072;21.394;2024-03-08T09:16:18;12.48;;;9.38;;
84891;SDS011;75154;42.072;21.394;2024-03-08T09:18:44;14.75;;;9.45;;
84891;SDS011;75154;42.072;21.394;2024-03-08T09:21:10;14.80;;;10.00;;
84891;SDS011;75154;42.072;21.394;2024-03-08T09:23:38;15.27;;;8.63;;
84891;SDS011;75154;42.072;21.394;2024-03-08T09:26:06;15.60;;;9.02;;
84891;SDS011;75154;42.072;21.394;2024-03-08T09:28:34;14.30;;;8.63;;
84891;SDS011;75154;42.072;21.394;2024-03-08T09:31:00;15.27;;;8.80;;
84891;SDS011;75154;42.072;21.394;2024-03-08T09:33:27;12.45;;;7.75;;
84891;SDS011;75154;42.072;21.394;2024-03-08T09:35:53;11.48;;;7.50;;
84891;SDS011;75154;42.072;21.394;2024-03-08T09:38:22;13.20;;;8.50;;
84891;SDS011;75154;42.072;21.394;2024-03-08T09:40:50;11.32;;;7.40;;
84891;SDS011;75154;42.072;21.394;2024-03-08T09:43:16;11.13;;;6.95;;
84891;SDS011;75154;42.072;21.394;2024-03-08T09:45:43;12.43;;;6.85;;
84891;SDS011;75154;42.072;21.394;2024-03-08T09:48:11;12.13;;;7.40;;
84891;SDS011;75154;42.072;21.394;2024-03-08T09:50:40;10.30;;;6.75;;
84891;SDS011;75154;42.072;21.394;2024-03-08T09:53:13;8.48;;;5.80;;
84891;SDS011;75154;42.072;21.394;2024-03-08T09:55:39;10.65;;;7.15;;
84891;SDS011;75154;42.072;21.394;2024-03-08T09:58:11;11.40;;;7.38;;
84891;SDS011;75154;42.072;21.394;2024-03-08T10:00:52;8.60;;;5.47;;
84891;SDS011;75154;42.072;21.394;2024-03-08T10:03:21;7.10;;;4.55;;
84891;SDS011;75154;42.072;21.394;2024-03-08T10:05:47;18.60;;;6.18;;
84891;SDS011;75154;42.072;21.394;2024-03-08T10:08:13;8.27;;;4.45;;
84891;SDS011;75154;42.072;21.394;2024-03-08T10:10:40;10.32;;;5.45;;
84891;SDS011;75154;42.072;21.394;2024-03-08T10:13:06;7.60;;;4.68;;
84891;SDS011;75154;42.072;21.394;2024-03-08T10:15:32;10.73;;;4.40;;
84891;SDS011;75154;42.072;21.394;2024-03-08T10:17:59;8.95;;;5.45;;
84891;SDS011;75154;42.072;21.394;2024-03-08T10:20:27;7.30;;;4.68;;
84891;SDS011;75154;42.072;21.394;2024-03-08T10:22:53;15.35;;;5.43;;
84891;SDS011;75154;42.072;21.394;2024-03-08T10:25:19;10.52;;;4.78;;
84891;SDS011;75154;42.072;21.394;2024-03-08T10:27:45;8.60;;;4.68;;
84891;SDS011;75154;42.072;21.394;2024-03-08T10:30:15;8.05;;;4.82;;
84891;SDS011;75154;42.072;21.394;2024-03-08T10:32:45;9.18;;;4.50;;
84891;SDS011;75154;42.072;21.394;2024-03-08T10:35:11;6.72;;;4.55;;
84891;SDS011;75154;42.072;21.394;2024-03-08T10:37:55;8.05;;;5.18;;
84891;SDS011;75154;42.072;21.394;2024-03-08T10:40:25;5.95;;;4.43;;
84891;SDS011;75154;42.072;21.394;2024-03-08T10:42:57;7.15;;;4.57;;
84891;SDS011;75154;42.072;21.394;2024-03-08T10:45:39;7.68;;;4.88;;
84891;SDS011;75154;42.072;21.394;2024-03-08T10:50:53;10.93;;;5.15;;
84891;SDS011;75154;42.072;21.394;2024-03-08T10:53:19;6.80;;;5.05;;
84891;SDS011;75154;42.072;21.394;2024-03-08T10:55:46;14.30;;;5.70;;
84891;SDS011;75154;42.072;21.394;2024-03-08T10:58:13;6.85;;;4.40;;
84891;SDS011;75154;42.072;21.394;2024-03-08T11:00:39;13.13;;;4.15;;
84891;SDS011;75154;42.072;21.394;2024-03-08T11:03:06;6.85;;;4.15;;
84891;SDS011;75154;42.072;21.394;2024-03-08T11:05:35;10.90;;;5.45;;
84891;SDS011;75154;42.072;21.394;2024-03-08T11:08:05;7.60;;;4.78;;
84891;SDS011;75154;42.072;21.394;2024-03-08T11:10:31;25.92;;;5.22;;
84891;SDS011;75154;42.072;21.394;2024-03-08T11:12:57;7.63;;;4.32;;
84891;SDS011;75154;42.072;21.394;2024-03-08T11:15:24;14.13;;;5.60;;
84891;SDS011;75154;42.072;21.394;2024-03-08T11:17:50;13.50;;;5.05;;
84891;SDS011;75154;42.072;21.394;2024-03-08T11:20:17;7.45;;;4.78;;
84891;SDS011;75154;42.072;21.394;2024-03-08T11:25:32;8.57;;;4.45;;
84891;SDS011;75154;42.072;21.394;2024-03-08T11:28:08;6.45;;;4.20;;
84891;SDS011;75154;42.072;21.394;2024-03-08T11:30:34;7.72;;;5.18;;
84891;SDS011;75154;42.072;21.394;2024-03-08T11:33:00;6.80;;;4.72;;
84891;SDS011;75154;42.072;21.394;2024-03-08T11:35:28;8.88;;;5.60;;
84891;SDS011;75154;42.072;21.394;2024-03-08T11:37:54;8.57;;;5.15;;
84891;SDS011;75154;42.072;21.394;2024-03-08T11:40:25;8.07;;;6.03;;
84891;SDS011;75154;42.072;21.394;2024-03-08T11:42:52;8.35;;;5.35;;
84891;SDS011;75154;42.072;21.394;2024-03-08T11:45:18;12.05;;;6.00;;
84891;SDS011;75154;42.072;21.394;2024-03-08T11:47:46;10.25;;;6.32;;
84891;SDS011;75154;42.072;21.394;2024-03-08T11:50:15;21.40;;;7.60;;
84891;SDS011;75154;42.072;21.394;2024-03-08T11:52:43;8.75;;;6.30;;
84891;SDS011;75154;42.072;21.394;2024-03-08T11:55:10;11.77;;;6.03;;
84891;SDS011;75154;42.072;21.394;2024-03-08T11:57:37;15.48;;;5.70;;
84891;SDS011;75154;42.072;21.394;2024-03-08T12:00:04;8.95;;;5.63;;
84891;SDS011;75154;42.072;21.394;2024-03-08T12:02:33;9.15;;;6.65;;
84891;SDS011;75154;42.072;21.394;2024-03-08T12:05:05;12.25;;;6.38;;
84891;SDS011;75154;42.072;21.394;2024-03-08T12:07:31;8.95;;;6.38;;
84891;SDS011;75154;42.072;21.394;2024-03-08T12:12:58;9.07;;;6.47;;
84891;SDS011;75154;42.072;21.394;2024-03-08T12:15:28;11.25;;;6.45;;
84891;SDS011;75154;42.072;21.394;2024-03-08T12:17:57;11.00;;;7.00;;
84891;SDS011;75154;42.072;21.394;2024-03-08T12:20:27;9.60;;;6.22;;
84891;SDS011;75154;42.072;21.394;2024-03-08T12:22:56;9.35;;;6.07;;
84891;SDS011;75154;42.072;21.394;2024-03-08T12:25:25;12.80;;;6.53;;
84891;SDS011;75154;42.072;21.394;2024-03-08T12:27:51;18.52;;;7.40;;
84891;SDS011;75154;42.072;21.394;2024-03-08T12:30:19;10.68;;;7.32;;
84891;SDS011;75154;42.072;21.394;2024-03-08T12:35:15;25.55;;;7.00;;
84891;SDS011;75154;42.072;21.394;2024-03-08T12:37:41;11.43;;;7.03;;
84891;SDS011;75154;42.072;21.394;2024-03-08T12:40:08;9.15;;;5.25;;
84891;SDS011;75154;42.072;21.394;2024-03-08T12:42:35;9.48;;;5.85;;
84891;SDS011;75154;42.072;21.394;2024-03-08T12:45:02;11.20;;;5.65;;
84891;SDS011;75154;42.072;21.394;2024-03-08T12:47:34;13.02;;;5.75;;
84891;SDS011;75154;42.072;21.394;2024-03-08T12:50:01;10.02;;;5.50;;
84891;SDS011;75154;42.072;21.394;2024-03-08T12:52:28;5.90;;;4.22;;
84891;SDS011;75154;42.072;21.394;2024-03-08T12:54:55;7.22;;;5.40;;
84891;SDS011;75154;42.072;21.394;2024-03-08T12:57:21;10.85;;;5.00;;
84891;SDS011;75154;42.072;21.394;2024-03-08T12:59:47;12.93;;;4.97;;
84891;SDS011;75154;42.072;21.394;2024-03-08T13:02:14;9.13;;;4.75;;
84891;SDS011;75154;42.072;21.394;2024-03-08T13:04:41;8.35;;;4.75;;
84891;SDS011;75154;42.072;21.394;2024-03-08T13:07:07;8.43;;;4.70;;
84891;SDS011;75154;42.072;21.394;2024-03-08T13:09:33;8.48;;;4.40;;
84891;SDS011;75154;42.072;21.394;2024-03-08T13:12:02;5.72;;;3.80;;
84891;SDS011;75154;42.072;21.394;2024-03-08T13:14:28;10.18;;;4.35;;
84891;SDS011;75154;42.072;21.394;2024-03-08T13:16:57;5.65;;;3.67;;
84891;SDS011;75154;42.072;21.394;2024-03-08T13:19:24;6.68;;;3.92;;
84891;SDS011;75154;42.072;21.394;2024-03-08T13:21:53;5.57;;;3.72;;
84891;SDS011;75154;42.072;21.394;2024-03-08T13:24:19;5.28;;;4.43;;
84891;SDS011;75154;42.072;21.394;2024-03-08T13:26:45;5.40;;;4.05;;
84891;SDS011;75154;42.072;21.394;2024-03-08T13:29:11;6.13;;;4.38;;
84891;SDS011;75154;42.072;21.394;2024-03-08T13:31:39;5.05;;;3.42;;
84891;SDS011;75154;42.072;21.394;2024-03-08T13:34:05;5.55;;;3.35;;
84891;SDS011;75154;42.072;21.394;2024-03-08T13:36:33;6.07;;;3.42;;
84891;SDS011;75154;42.072;21.394;2024-03-08T13:39:04;5.63;;;3.40;;
84891;SDS011;75154;42.072;21.394;2024-03-08T13:41:40;5.75;;;3.42;;
84891;SDS011;75154;42.072;21.394;2024-03-08T13:44:06;4.38;;;3.53;;
84891;SDS011;75154;42.072;21.394;2024-03-08T13:46:33;7.85;;;4.07;;
84891;SDS011;75154;42.072;21.394;2024-03-08T13:49:05;8.18;;;3.35;;
84891;SDS011;75154;42.072;21.394;2024-03-08T13:51:33;4.53;;;3.15;;
84891;SDS011;75154;42.072;21.394;2024-03-08T13:53:59;5.80;;;3.53;;
84891;SDS011;75154;42.072;21.394;2024-03-08T13:56:26;5.13;;;3.28;;
84891;SDS011;75154;42.072;21.394;2024-03-08T13:58:52;5.78;;;3.60;;
84891;SDS011;75154;42.072;21.394;2024-03-08T14:01:21;6.13;;;3.90;;
84891;SDS011;75154;42.072;21.394;2024-03-08T14:03:47;6.88;;;4.45;;
84891;SDS011;75154;42.072;21.394;2024-03-08T14:06:13;5.45;;;3.35;;
84891;SDS011;75154;42.072;21.394;2024-03-08T14:08:39;4.30;;;3.58;;
84891;SDS011;75154;42.072;21.394;2024-03-08T14:11:05;4.88;;;3.95;;
84891;SDS011;75154;42.072;21.394;2024-03-08T14:13:43;5.18;;;3.50;;
84891;SDS011;75154;42.072;21.394;2024-03-08T14:16:12;7.55;;;4.38;;
84891;SDS011;75154;42.072;21.394;2024-03-08T14:18:38;5.32;;;3.78;;
84891;SDS011;75154;42.072;21.394;2024-03-08T14:21:05;6.10;;;4.72;;
84891;SDS011;75154;42.072;21.394;2024-03-08T14:23:33;6.88;;;4.50;;
84891;SDS011;75154;42.072;21.394;2024-03-08T14:26:00;4.70;;;3.47;;
84891;SDS011;75154;42.072;21.394;2024-03-08T14:28:26;6.30;;;3.88;;
84891;SDS011;75154;42.072;21.394;2024-03-08T14:30:52;6.03;;;4.05;;
84891;SDS011;75154;42.072;21.394;2024-03-08T14:33:19;6.80;;;4.30;;
84891;SDS011;75154;42.072;21.394;2024-03-08T14:35:45;6.78;;;4.63;;